sensor_id;sensor_type;location;lat;lon;timestamp;temperature;humidity
19622;DHT22;9958;33.196;-97.114;2022-12-29T00:01:11;18.00;99.90
19622;DHT22;9958;33.196;-97.114;2022-12-29T00:03:45;18.00;99.90
19622;DHT22;9958;33.196;-97.114;2022-12-29T00:06:13;18.00;99.90
19622;DHT22;9958;33.196;-97.114;2022-12-29T00:08:41;17.90;99.90
19622;DHT22;9958;33.196;-97.114;2022-12-29T00:11:12;17.90;99.90
19622;DHT22;9958;33.196;-97.114;2022-12-29T00:13:40;17.80;99.90
19622;DHT22;9958;33.196;-97.114;2022-12-29T00:16:28;17.80;99.90
19622;DHT22;9958;33.196;-97.114;2022-12-29T00:18:56;17.70;99.90
19622;DHT22;9958;33.196;-97.114;2022-12-29T00:21:25;17.60;99.90
19622;DHT22;9958;33.196;-97.114;2022-12-29T00:24:14;17.60;99.90
19622;DHT22;9958;33.196;-97.114;2022-12-29T00:27:13;17.50;99.90
19622;DHT22;9958;33.196;-97.114;2022-12-29T00:29:58;17.50;99.90
19622;DHT22;9958;33.196;-97.114;2022-12-29T00:32:53;17.50;99.90
19622;DHT22;9958;33.196;-97.114;2022-12-29T00:35:42;17.40;99.90
19622;DHT22;9958;33.196;-97.114;2022-12-29T00:38:13;17.40;99.90
19622;DHT22;9958;33.196;-97.114;2022-12-29T00:40:58;17.40;99.90
19622;DHT22;9958;33.196;-97.114;2022-12-29T00:43:44;17.40;99.90
19622;DHT22;9958;33.196;-97.114;2022-12-29T00:46:31;17.40;99.90
19622;DHT22;9958;33.196;-97.114;2022-12-29T00:49:01;17.50;99.90
19622;DHT22;9958;33.196;-97.114;2022-12-29T00:51:49;17.50;99.90
19622;DHT22;9958;33.196;-97.114;2022-12-29T00:54:18;17.50;99.90
19622;DHT22;9958;33.196;-97.114;2022-12-29T00:56:47;17.40;99.90
19622;DHT22;9958;33.196;-97.114;2022-12-29T00:59:16;17.40;99.90
19622;DHT22;9958;33.196;-97.114;2022-12-29T01:01:44;17.40;99.90
19622;DHT22;9958;33.196;-97.114;2022-12-29T01:04:15;17.40;99.90
19622;DHT22;9958;33.196;-97.114;2022-12-29T01:06:43;17.40;99.90
19622;DHT22;9958;33.196;-97.114;2022-12-29T01:09:11;17.40;99.90
19622;DHT22;9958;33.196;-97.114;2022-12-29T01:11:57;17.30;99.90
19622;DHT22;9958;33.196;-97.114;2022-12-29T01:14:25;17.40;99.90
19622;DHT22;9958;33.196;-97.114;2022-12-29T01:16:54;17.30;99.90
19622;DHT22;9958;33.196;-97.114;2022-12-29T01:19:27;17.30;99.90
19622;DHT22;9958;33.196;-97.114;2022-12-29T01:21:56;17.40;99.90
19622;DHT22;9958;33.196;-97.114;2022-12-29T01:24:25;17.40;99.90
19622;DHT22;9958;33.196;-97.114;2022-12-29T01:26:53;17.40;99.90
19622;DHT22;9958;33.196;-97.114;2022-12-29T01:29:25;17.40;99.90
19622;DHT22;9958;33.196;-97.114;2022-12-29T01:31:53;17.40;99.90
19622;DHT22;9958;33.196;-97.114;2022-12-29T01:34:22;17.40;99.90
19622;DHT22;9958;33.196;-97.114;2022-12-29T01:36:53;17.50;99.90
19622;DHT22;9958;33.196;-97.114;2022-12-29T01:39:22;17.40;99.90
19622;DHT22;9958;33.196;-97.114;2022-12-29T01:41:50;17.50;99.90
19622;DHT22;9958;33.196;-97.114;2022-12-29T01:44:50;17.50;99.90
19622;DHT22;9958;33.196;-97.114;2022-12-29T01:47:29;17.50;99.90
19622;DHT22;9958;33.196;-97.114;2022-12-29T01:50:02;17.50;99.90
19622;DHT22;9958;33.196;-97.114;2022-12-29T01:52:36;17.50;99.90
19622;DHT22;9958;33.196;-97.114;2022-12-29T01:55:07;17.50;99.90
19622;DHT22;9958;33.196;-97.114;2022-12-29T01:57:38;17.50;99.90
19622;DHT22;9958;33.196;-97.114;2022-12-29T02:00:10;17.40;99.90
19622;DHT22;9958;33.196;-97.114;2022-12-29T02:02:39;17.40;99.90
19622;DHT22;9958;33.196;-97.114;2022-12-29T02:05:11;17.40;99.90
19622;DHT22;9958;33.196;-97.114;2022-12-29T02:07:44;17.30;99.90
19622;DHT22;9958;33.196;-97.114;2022-12-29T02:10:13;17.30;99.90
19622;DHT22;9958;33.196;-97.114;2022-12-29T02:12:41;17.20;99.90
19622;DHT22;9958;33.196;-97.114;2022-12-29T02:15:10;17.20;99.90
19622;DHT22;9958;33.196;-97.114;2022-12-29T02:17:55;17.20;99.90
19622;DHT22;9958;33.196;-97.114;2022-12-29T02:20:52;17.10;99.90
19622;DHT22;9958;33.196;-97.114;2022-12-29T02:23:48;17.10;99.90
19622;DHT22;9958;33.196;-97.114;2022-12-29T02:26:46;17.00;99.90
19622;DHT22;9958;33.196;-97.114;2022-12-29T02:29:35;16.90;99.90
19622;DHT22;9958;33.196;-97.114;2022-12-29T02:32:14;16.90;99.90
19622;DHT22;9958;33.196;-97.114;2022-12-29T02:34:52;16.80;99.90
19622;DHT22;9958;33.196;-97.114;2022-12-29T02:37:30;16.80;99.90
19622;DHT22;9958;33.196;-97.114;2022-12-29T02:40:05;16.70;99.90
19622;DHT22;9958;33.196;-97.114;2022-12-29T02:42:40;16.60;99.90
19622;DHT22;9958;33.196;-97.114;2022-12-29T02:45:15;16.60;99.90
19622;DHT22;9958;33.196;-97.114;2022-12-29T02:47:49;16.50;99.90
19622;DHT22;9958;33.196;-97.114;2022-12-29T02:50:23;16.50;99.90
19622;DHT22;9958;33.196;-97.114;2022-12-29T02:52:58;16.40;99.90
19622;DHT22;9958;33.196;-97.114;2022-12-29T02:55:27;16.30;99.90
19622;DHT22;9958;33.196;-97.114;2022-12-29T02:58:16;16.30;99.90
19622;DHT22;9958;33.196;-97.114;2022-12-29T03:01:01;16.20;99.90
19622;DHT22;9958;33.196;-97.114;2022-12-29T03:03:44;16.20;99.90
19622;DHT22;9958;33.196;-97.114;2022-12-29T03:06:27;16.20;99.90
19622;DHT22;9958;33.196;-97.114;2022-12-29T03:09:03;16.10;99.90
19622;DHT22;9958;33.196;-97.114;2022-12-29T03:11:41;16.10;99.90
19622;DHT22;9958;33.196;-97.114;2022-12-29T03:14:33;16.00;99.90
19622;DHT22;9958;33.196;-97.114;2022-12-29T03:17:26;16.00;99.90
19622;DHT22;9958;33.196;-97.114;2022-12-29T03:20:04;15.90;99.90
19622;DHT22;9958;33.196;-97.114;2022-12-29T03:22:36;15.90;99.90
19622;DHT22;9958;33.196;-97.114;2022-12-29T03:25:10;15.90;99.90
19622;DHT22;9958;33.196;-97.114;2022-12-29T03:27:42;15.90;99.90
19622;DHT22;9958;33.196;-97.114;2022-12-29T03:30:12;15.90;99.90
19622;DHT22;9958;33.196;-97.114;2022-12-29T03:32:46;15.80;99.90
19622;DHT22;9958;33.196;-97.114;2022-12-29T03:35:20;15.80;99.90
19622;DHT22;9958;33.196;-97.114;2022-12-29T03:37:53;15.80;99.90
19622;DHT22;9958;33.196;-97.114;2022-12-29T03:40:24;15.80;99.90
19622;DHT22;9958;33.196;-97.114;2022-12-29T03:42:54;15.70;99.90
19622;DHT22;9958;33.196;-97.114;2022-12-29T03:45:24;15.70;99.90
19622;DHT22;9958;33.196;-97.114;2022-12-29T03:47:53;15.70;99.90
19622;DHT22;9958;33.196;-97.114;2022-12-29T03:50:23;15.70;99.90
19622;DHT22;9958;33.196;-97.114;2022-12-29T03:52:52;15.70;99.90
19622;DHT22;9958;33.196;-97.114;2022-12-29T03:55:20;15.60;99.90
19622;DHT22;9958;33.196;-97.114;2022-12-29T03:57:48;15.70;99.90
19622;DHT22;9958;33.196;-97.114;2022-12-29T04:00:17;15.70;99.90
19622;DHT22;9958;33.196;-97.114;2022-12-29T04:02:46;15.70;99.90
19622;DHT22;9958;33.196;-97.114;2022-12-29T04:05:14;15.70;99.90
19622;DHT22;9958;33.196;-97.114;2022-12-29T04:07:44;15.70;99.90
19622;DHT22;9958;33.196;-97.114;2022-12-29T04:10:12;15.70;99.90
19622;DHT22;9958;33.196;-97.114;2022-12-29T04:12:41;15.70;99.90
19622;DHT22;9958;33.196;-97.114;2022-12-29T04:15:10;15.80;99.90
19622;DHT22;9958;33.196;-97.114;2022-12-29T04:17:38;15.70;99.90
19622;DHT22;9958;33.196;-97.114;2022-12-29T04:20:07;15.80;99.90
19622;DHT22;9958;33.196;-97.114;2022-12-29T04:23:00;15.80;99.90
19622;DHT22;9958;33.196;-97.114;2022-12-29T04:25:28;15.80;99.90
19622;DHT22;9958;33.196;-97.114;2022-12-29T04:27:58;15.80;99.90
19622;DHT22;9958;33.196;-97.114;2022-12-29T04:30:26;15.90;99.90
19622;DHT22;9958;33.196;-97.114;2022-12-29T04:32:54;15.90;99.90
19622;DHT22;9958;33.196;-97.114;2022-12-29T04:35:23;15.90;99.90
19622;DHT22;9958;33.196;-97.114;2022-12-29T04:37:51;16.00;99.90
19622;DHT22;9958;33.196;-97.114;2022-12-29T04:40:21;16.00;99.90
19622;DHT22;9958;33.196;-97.114;2022-12-29T04:42:51;16.10;99.90
19622;DHT22;9958;33.196;-97.114;2022-12-29T04:45:19;16.10;99.90
19622;DHT22;9958;33.196;-97.114;2022-12-29T04:47:47;16.10;99.90
19622;DHT22;9958;33.196;-97.114;2022-12-29T04:50:16;16.20;99.90
19622;DHT22;9958;33.196;-97.114;2022-12-29T04:52:44;16.20;99.90
19622;DHT22;9958;33.196;-97.114;2022-12-29T04:55:13;16.20;99.90
19622;DHT22;9958;33.196;-97.114;2022-12-29T04:57:43;16.20;99.90
19622;DHT22;9958;33.196;-97.114;2022-12-29T05:00:12;16.30;99.90
19622;DHT22;9958;33.196;-97.114;2022-12-29T05:02:41;16.30;99.90
19622;DHT22;9958;33.196;-97.114;2022-12-29T05:05:09;16.30;99.90
19622;DHT22;9958;33.196;-97.114;2022-12-29T05:07:38;16.30;99.90
19622;DHT22;9958;33.196;-97.114;2022-12-29T05:10:07;16.30;99.90
19622;DHT22;9958;33.196;-97.114;2022-12-29T05:12:37;16.30;99.90
19622;DHT22;9958;33.196;-97.114;2022-12-29T05:15:09;16.30;99.90
19622;DHT22;9958;33.196;-97.114;2022-12-29T05:17:37;16.30;99.90
19622;DHT22;9958;33.196;-97.114;2022-12-29T05:20:07;16.30;99.90
19622;DHT22;9958;33.196;-97.114;2022-12-29T05:22:36;16.30;99.90
19622;DHT22;9958;33.196;-97.114;2022-12-29T05:25:05;16.30;99.90
19622;DHT22;9958;33.196;-97.114;2022-12-29T05:27:33;16.30;99.90
19622;DHT22;9958;33.196;-97.114;2022-12-29T05:30:02;16.40;99.90
19622;DHT22;9958;33.196;-97.114;2022-12-29T05:32:32;16.40;99.90
19622;DHT22;9958;33.196;-97.114;2022-12-29T05:35:01;16.40;99.90
19622;DHT22;9958;33.196;-97.114;2022-12-29T05:37:29;16.40;99.90
19622;DHT22;9958;33.196;-97.114;2022-12-29T05:39:57;16.40;99.90
19622;DHT22;9958;33.196;-97.114;2022-12-29T05:42:26;16.40;99.90
19622;DHT22;9958;33.196;-97.114;2022-12-29T05:44:54;16.40;99.90
19622;DHT22;9958;33.196;-97.114;2022-12-29T05:47:22;16.40;99.90
19622;DHT22;9958;33.196;-97.114;2022-12-29T05:49:53;16.40;99.90
19622;DHT22;9958;33.196;-97.114;2022-12-29T05:52:21;16.40;99.90
19622;DHT22;9958;33.196;-97.114;2022-12-29T05:54:49;16.40;99.90
19622;DHT22;9958;33.196;-97.114;2022-12-29T05:57:18;16.40;99.90
19622;DHT22;9958;33.196;-97.114;2022-12-29T05:59:46;16.40;99.90
19622;DHT22;9958;33.196;-97.114;2022-12-29T06:02:14;16.40;99.90
19622;DHT22;9958;33.196;-97.114;2022-12-29T06:04:43;16.40;99.90
19622;DHT22;9958;33.196;-97.114;2022-12-29T06:07:13;16.40;99.90
19622;DHT22;9958;33.196;-97.114;2022-12-29T06:09:41;16.40;99.90
19622;DHT22;9958;33.196;-97.114;2022-12-29T06:12:09;16.40;99.90
19622;DHT22;9958;33.196;-97.114;2022-12-29T06:14:38;16.40;99.90
19622;DHT22;9958;33.196;-97.114;2022-12-29T06:17:06;16.50;99.90
19622;DHT22;9958;33.196;-97.114;2022-12-29T06:19:35;16.40;99.90
19622;DHT22;9958;33.196;-97.114;2022-12-29T06:22:03;16.50;99.90
19622;DHT22;9958;33.196;-97.114;2022-12-29T06:24:33;16.40;99.90
19622;DHT22;9958;33.196;-97.114;2022-12-29T06:27:02;16.40;99.90
19622;DHT22;9958;33.196;-97.114;2022-12-29T06:29:30;16.40;99.90
19622;DHT22;9958;33.196;-97.114;2022-12-29T06:31:58;16.40;99.90
19622;DHT22;9958;33.196;-97.114;2022-12-29T06:34:27;16.40;99.90
19622;DHT22;9958;33.196;-97.114;2022-12-29T06:36:55;16.40;99.90
19622;DHT22;9958;33.196;-97.114;2022-12-29T06:39:23;16.40;99.90
19622;DHT22;9958;33.196;-97.114;2022-12-29T06:41:54;16.40;99.90
19622;DHT22;9958;33.196;-97.114;2022-12-29T06:44:22;16.40;99.90
19622;DHT22;9958;33.196;-97.114;2022-12-29T06:46:51;16.40;99.90
19622;DHT22;9958;33.196;-97.114;2022-12-29T06:49:19;16.40;99.90
19622;DHT22;9958;33.196;-97.114;2022-12-29T06:51:48;16.40;99.90
19622;DHT22;9958;33.196;-97.114;2022-12-29T06:54:16;16.40;99.90
19622;DHT22;9958;33.196;-97.114;2022-12-29T06:56:45;16.40;99.90
19622;DHT22;9958;33.196;-97.114;2022-12-29T06:59:14;16.40;99.90
19622;DHT22;9958;33.196;-97.114;2022-12-29T07:01:43;16.40;99.90
19622;DHT22;9958;33.196;-97.114;2022-12-29T07:04:11;16.40;99.90
19622;DHT22;9958;33.196;-97.114;2022-12-29T07:06:40;16.40;99.90
19622;DHT22;9958;33.196;-97.114;2022-12-29T07:09:09;16.50;99.90
19622;DHT22;9958;33.196;-97.114;2022-12-29T07:11:37;16.50;99.90
19622;DHT22;9958;33.196;-97.114;2022-12-29T07:14:06;16.50;99.90
19622;DHT22;9958;33.196;-97.114;2022-12-29T07:16:36;16.50;99.90
19622;DHT22;9958;33.196;-97.114;2022-12-29T07:19:04;16.60;99.90
19622;DHT22;9958;33.196;-97.114;2022-12-29T07:21:32;16.60;99.90
19622;DHT22;9958;33.196;-97.114;2022-12-29T07:24:01;16.60;99.90
19622;DHT22;9958;33.196;-97.114;2022-12-29T07:26:29;16.70;99.90
19622;DHT22;9958;33.196;-97.114;2022-12-29T07:28:59;16.80;99.90
19622;DHT22;9958;33.196;-97.114;2022-12-29T07:31:28;16.80;99.90
19622;DHT22;9958;33.196;-97.114;2022-12-29T07:33:57;16.80;99.90
19622;DHT22;9958;33.196;-97.114;2022-12-29T07:36:26;16.90;99.90
19622;DHT22;9958;33.196;-97.114;2022-12-29T07:38:54;16.90;99.90
19622;DHT22;9958;33.196;-97.114;2022-12-29T07:41:23;16.90;99.90
19622;DHT22;9958;33.196;-97.114;2022-12-29T07:43:51;17.00;99.90
19622;DHT22;9958;33.196;-97.114;2022-12-29T07:46:19;17.00;99.90
19622;DHT22;9958;33.196;-97.114;2022-12-29T07:48:48;17.00;99.90
19622;DHT22;9958;33.196;-97.114;2022-12-29T07:51:18;17.00;99.90
19622;DHT22;9958;33.196;-97.114;2022-12-29T07:53:46;17.10;99.90
19622;DHT22;9958;33.196;-97.114;2022-12-29T07:56:14;17.10;99.90
19622;DHT22;9958;33.196;-97.114;2022-12-29T07:58:43;17.10;99.90
19622;DHT22;9958;33.196;-97.114;2022-12-29T08:01:11;17.20;99.90
19622;DHT22;9958;33.196;-97.114;2022-12-29T08:03:39;17.20;99.90
19622;DHT22;9958;33.196;-97.114;2022-12-29T08:06:10;17.20;99.90
19622;DHT22;9958;33.196;-97.114;2022-12-29T08:08:40;17.20;99.90
19622;DHT22;9958;33.196;-97.114;2022-12-29T08:11:08;17.30;99.90
19622;DHT22;9958;33.196;-97.114;2022-12-29T08:13:37;17.30;99.90
19622;DHT22;9958;33.196;-97.114;2022-12-29T08:16:06;17.30;99.90
19622;DHT22;9958;33.196;-97.114;2022-12-29T08:18:34;17.30;99.90
19622;DHT22;9958;33.196;-97.114;2022-12-29T08:21:03;17.30;99.90
19622;DHT22;9958;33.196;-97.114;2022-12-29T08:23:32;17.30;99.90
19622;DHT22;9958;33.196;-97.114;2022-12-29T08:26:03;17.30;99.90
19622;DHT22;9958;33.196;-97.114;2022-12-29T08:28:33;17.30;99.90
19622;DHT22;9958;33.196;-97.114;2022-12-29T08:31:02;17.30;99.90
19622;DHT22;9958;33.196;-97.114;2022-12-29T08:33:30;17.30;99.90
19622;DHT22;9958;33.196;-97.114;2022-12-29T08:36:02;17.30;99.90
19622;DHT22;9958;33.196;-97.114;2022-12-29T08:38:31;17.30;99.90
19622;DHT22;9958;33.196;-97.114;2022-12-29T08:41:01;17.30;99.90
19622;DHT22;9958;33.196;-97.114;2022-12-29T08:43:29;17.20;99.90
19622;DHT22;9958;33.196;-97.114;2022-12-29T08:45:58;17.20;99.90
19622;DHT22;9958;33.196;-97.114;2022-12-29T08:48:27;17.20;99.90
19622;DHT22;9958;33.196;-97.114;2022-12-29T08:50:55;17.20;99.90
19622;DHT22;9958;33.196;-97.114;2022-12-29T08:53:24;17.20;99.90
19622;DHT22;9958;33.196;-97.114;2022-12-29T08:55:56;17.20;99.90
19622;DHT22;9958;33.196;-97.114;2022-12-29T08:58:26;17.20;99.90
19622;DHT22;9958;33.196;-97.114;2022-12-29T09:00:55;17.10;99.90
19622;DHT22;9958;33.196;-97.114;2022-12-29T09:03:25;17.10;99.90
19622;DHT22;9958;33.196;-97.114;2022-12-29T09:05:54;17.10;99.90
19622;DHT22;9958;33.196;-97.114;2022-12-29T09:08:22;17.10;99.90
19622;DHT22;9958;33.196;-97.114;2022-12-29T09:10:51;17.00;99.90
19622;DHT22;9958;33.196;-97.114;2022-12-29T09:13:19;17.00;99.90
19622;DHT22;9958;33.196;-97.114;2022-12-29T09:15:58;17.00;99.90
19622;DHT22;9958;33.196;-97.114;2022-12-29T09:18:26;17.00;99.90
19622;DHT22;9958;33.196;-97.114;2022-12-29T09:20:57;17.00;99.90
19622;DHT22;9958;33.196;-97.114;2022-12-29T09:23:26;17.00;99.90
19622;DHT22;9958;33.196;-97.114;2022-12-29T09:25:55;17.00;99.90
19622;DHT22;9958;33.196;-97.114;2022-12-29T09:28:23;17.00;99.90
19622;DHT22;9958;33.196;-97.114;2022-12-29T09:30:53;17.10;99.90
19622;DHT22;9958;33.196;-97.114;2022-12-29T09:33:21;17.10;99.90
19622;DHT22;9958;33.196;-97.114;2022-12-29T09:35:52;17.10;99.90
19622;DHT22;9958;33.196;-97.114;2022-12-29T09:38:21;17.20;99.90
19622;DHT22;9958;33.196;-97.114;2022-12-29T09:40:51;17.20;99.90
19622;DHT22;9958;33.196;-97.114;2022-12-29T09:43:52;17.20;99.90
19622;DHT22;9958;33.196;-97.114;2022-12-29T09:46:25;17.30;99.90
19622;DHT22;9958;33.196;-97.114;2022-12-29T09:49:02;17.30;99.90
19622;DHT22;9958;33.196;-97.114;2022-12-29T09:51:37;17.30;99.90
19622;DHT22;9958;33.196;-97.114;2022-12-29T09:54:23;17.30;99.90
19622;DHT22;9958;33.196;-97.114;2022-12-29T09:56:52;17.30;99.90
19622;DHT22;9958;33.196;-97.114;2022-12-29T09:59:24;17.30;99.90
19622;DHT22;9958;33.196;-97.114;2022-12-29T10:01:59;17.40;99.90
19622;DHT22;9958;33.196;-97.114;2022-12-29T10:04:30;17.40;99.90
19622;DHT22;9958;33.196;-97.114;2022-12-29T10:07:01;17.40;99.90
19622;DHT22;9958;33.196;-97.114;2022-12-29T10:09:37;17.40;99.90
19622;DHT22;9958;33.196;-97.114;2022-12-29T10:12:20;17.40;99.90
19622;DHT22;9958;33.196;-97.114;2022-12-29T10:15:00;17.50;99.90
19622;DHT22;9958;33.196;-97.114;2022-12-29T10:17:39;17.50;99.90
19622;DHT22;9958;33.196;-97.114;2022-12-29T10:20:25;17.50;99.90
19622;DHT22;9958;33.196;-97.114;2022-12-29T10:23:15;17.60;99.90
19622;DHT22;9958;33.196;-97.114;2022-12-29T10:25:48;17.60;99.90
19622;DHT22;9958;33.196;-97.114;2022-12-29T10:28:21;17.50;99.90
19622;DHT22;9958;33.196;-97.114;2022-12-29T10:30:51;17.60;99.90
19622;DHT22;9958;33.196;-97.114;2022-12-29T10:33:26;17.60;99.90
19622;DHT22;9958;33.196;-97.114;2022-12-29T10:35:56;17.60;99.90
19622;DHT22;9958;33.196;-97.114;2022-12-29T10:38:27;17.70;99.90
19622;DHT22;9958;33.196;-97.114;2022-12-29T10:41:00;17.70;99.90
19622;DHT22;9958;33.196;-97.114;2022-12-29T10:43:34;17.60;99.90
19622;DHT22;9958;33.196;-97.114;2022-12-29T10:46:05;17.70;99.90
19622;DHT22;9958;33.196;-97.114;2022-12-29T10:48:38;17.60;99.90
19622;DHT22;9958;33.196;-97.114;2022-12-29T10:51:08;17.60;99.90
19622;DHT22;9958;33.196;-97.114;2022-12-29T10:53:39;17.70;99.90
19622;DHT22;9958;33.196;-97.114;2022-12-29T10:56:21;17.60;99.90
19622;DHT22;9958;33.196;-97.114;2022-12-29T10:58:50;17.70;99.90
19622;DHT22;9958;33.196;-97.114;2022-12-29T11:01:19;17.70;99.90
19622;DHT22;9958;33.196;-97.114;2022-12-29T11:04:01;17.70;99.90
19622;DHT22;9958;33.196;-97.114;2022-12-29T11:06:31;17.70;99.90
19622;DHT22;9958;33.196;-97.114;2022-12-29T11:09:08;17.60;99.90
19622;DHT22;9958;33.196;-97.114;2022-12-29T11:11:37;17.70;99.90
19622;DHT22;9958;33.196;-97.114;2022-12-29T11:14:12;17.70;99.90
19622;DHT22;9958;33.196;-97.114;2022-12-29T11:16:41;17.60;99.90
19622;DHT22;9958;33.196;-97.114;2022-12-29T11:19:27;17.60;99.90
19622;DHT22;9958;33.196;-97.114;2022-12-29T11:22:13;17.60;99.90
19622;DHT22;9958;33.196;-97.114;2022-12-29T11:24:45;17.50;99.90
19622;DHT22;9958;33.196;-97.114;2022-12-29T11:27:16;17.50;99.90
19622;DHT22;9958;33.196;-97.114;2022-12-29T11:29:46;17.50;99.90
19622;DHT22;9958;33.196;-97.114;2022-12-29T11:32:18;17.50;99.90
19622;DHT22;9958;33.196;-97.114;2022-12-29T11:34:49;17.40;99.90
19622;DHT22;9958;33.196;-97.114;2022-12-29T11:37:18;17.40;99.90
19622;DHT22;9958;33.196;-97.114;2022-12-29T11:39:51;17.40;99.90
19622;DHT22;9958;33.196;-97.114;2022-12-29T11:42:23;17.40;99.90
19622;DHT22;9958;33.196;-97.114;2022-12-29T11:44:56;17.30;99.90
19622;DHT22;9958;33.196;-97.114;2022-12-29T11:47:32;17.30;99.90
19622;DHT22;9958;33.196;-97.114;2022-12-29T11:50:05;17.20;99.90
19622;DHT22;9958;33.196;-97.114;2022-12-29T11:52:36;17.20;99.90
19622;DHT22;9958;33.196;-97.114;2022-12-29T11:55:17;17.20;99.90
19622;DHT22;9958;33.196;-97.114;2022-12-29T11:57:46;17.10;99.90
19622;DHT22;9958;33.196;-97.114;2022-12-29T12:00:16;17.20;99.90
19622;DHT22;9958;33.196;-97.114;2022-12-29T12:02:53;17.10;99.90
19622;DHT22;9958;33.196;-97.114;2022-12-29T12:05:35;17.10;99.90
19622;DHT22;9958;33.196;-97.114;2022-12-29T12:08:10;17.00;99.90
19622;DHT22;9958;33.196;-97.114;2022-12-29T12:10:44;17.10;99.90
19622;DHT22;9958;33.196;-97.114;2022-12-29T12:13:23;17.00;99.90
19622;DHT22;9958;33.196;-97.114;2022-12-29T12:15:57;17.00;99.90
19622;DHT22;9958;33.196;-97.114;2022-12-29T12:18:34;17.00;99.90
19622;DHT22;9958;33.196;-97.114;2022-12-29T12:21:12;17.00;99.90
19622;DHT22;9958;33.196;-97.114;2022-12-29T12:23:55;16.90;99.90
19622;DHT22;9958;33.196;-97.114;2022-12-29T12:26:32;16.90;99.90
19622;DHT22;9958;33.196;-97.114;2022-12-29T12:29:08;16.80;99.90
19622;DHT22;9958;33.196;-97.114;2022-12-29T12:31:45;16.80;99.90
19622;DHT22;9958;33.196;-97.114;2022-12-29T12:34:20;16.80;99.90
19622;DHT22;9958;33.196;-97.114;2022-12-29T12:37:03;16.80;99.90
19622;DHT22;9958;33.196;-97.114;2022-12-29T12:39:43;16.80;99.90
19622;DHT22;9958;33.196;-97.114;2022-12-29T12:42:25;16.70;99.90
19622;DHT22;9958;33.196;-97.114;2022-12-29T12:45:03;16.70;99.90
19622;DHT22;9958;33.196;-97.114;2022-12-29T12:47:49;16.70;99.90
19622;DHT22;9958;33.196;-97.114;2022-12-29T12:50:32;16.70;99.90
19622;DHT22;9958;33.196;-97.114;2022-12-29T12:53:23;16.70;99.90
19622;DHT22;9958;33.196;-97.114;2022-12-29T12:56:09;16.60;99.90
19622;DHT22;9958;33.196;-97.114;2022-12-29T12:58:46;16.60;99.90
19622;DHT22;9958;33.196;-97.114;2022-12-29T13:01:33;16.60;99.90
19622;DHT22;9958;33.196;-97.114;2022-12-29T13:04:26;16.60;99.90
19622;DHT22;9958;33.196;-97.114;2022-12-29T13:07:03;16.60;99.90
19622;DHT22;9958;33.196;-97.114;2022-12-29T13:09:48;16.50;99.90
19622;DHT22;9958;33.196;-97.114;2022-12-29T13:12:26;16.50;99.90
19622;DHT22;9958;33.196;-97.114;2022-12-29T13:15:08;16.50;99.90
19622;DHT22;9958;33.196;-97.114;2022-12-29T13:17:44;16.50;99.90
19622;DHT22;9958;33.196;-97.114;2022-12-29T13:20:30;16.40;99.90
19622;DHT22;9958;33.196;-97.114;2022-12-29T13:23:05;16.40;99.90
19622;DHT22;9958;33.196;-97.114;2022-12-29T13:25:41;16.40;99.90
19622;DHT22;9958;33.196;-97.114;2022-12-29T13:28:18;16.40;99.90
19622;DHT22;9958;33.196;-97.114;2022-12-29T13:30:56;16.40;99.90
19622;DHT22;9958;33.196;-97.114;2022-12-29T13:33:33;16.40;99.90
19622;DHT22;9958;33.196;-97.114;2022-12-29T13:36:09;16.40;99.90
19622;DHT22;9958;33.196;-97.114;2022-12-29T13:38:40;16.40;99.90
19622;DHT22;9958;33.196;-97.114;2022-12-29T13:41:16;16.40;99.90
19622;DHT22;9958;33.196;-97.114;2022-12-29T13:43:48;16.40;99.90
19622;DHT22;9958;33.196;-97.114;2022-12-29T13:46:21;16.30;99.90
19622;DHT22;9958;33.196;-97.114;2022-12-29T13:48:51;16.40;99.90
19622;DHT22;9958;33.196;-97.114;2022-12-29T13:51:23;16.40;99.90
19622;DHT22;9958;33.196;-97.114;2022-12-29T13:54:01;16.40;99.90
19622;DHT22;9958;33.196;-97.114;2022-12-29T13:56:38;16.40;99.90
19622;DHT22;9958;33.196;-97.114;2022-12-29T13:59:15;16.40;99.90
19622;DHT22;9958;33.196;-97.114;2022-12-29T14:01:53;16.40;99.90
19622;DHT22;9958;33.196;-97.114;2022-12-29T14:04:24;16.40;99.90
19622;DHT22;9958;33.196;-97.114;2022-12-29T14:07:04;16.50;99.90
19622;DHT22;9958;33.196;-97.114;2022-12-29T14:09:42;16.50;99.90
19622;DHT22;9958;33.196;-97.114;2022-12-29T14:12:31;16.50;99.90
19622;DHT22;9958;33.196;-97.114;2022-12-29T14:15:15;16.50;99.90
19622;DHT22;9958;33.196;-97.114;2022-12-29T14:17:44;16.50;99.90
19622;DHT22;9958;33.196;-97.114;2022-12-29T14:20:27;16.50;99.90
19622;DHT22;9958;33.196;-97.114;2022-12-29T14:22:58;16.50;99.90
19622;DHT22;9958;33.196;-97.114;2022-12-29T14:26:10;16.50;99.90
19622;DHT22;9958;33.196;-97.114;2022-12-29T14:28:42;16.60;99.90
19622;DHT22;9958;33.196;-97.114;2022-12-29T14:31:35;16.60;99.90
19622;DHT22;9958;33.196;-97.114;2022-12-29T14:34:29;16.60;99.90
19622;DHT22;9958;33.196;-97.114;2022-12-29T14:36:59;16.60;99.90
19622;DHT22;9958;33.196;-97.114;2022-12-29T14:39:32;16.60;99.90
19622;DHT22;9958;33.196;-97.114;2022-12-29T14:42:05;16.60;99.90
19622;DHT22;9958;33.196;-97.114;2022-12-29T14:44:46;16.60;99.90
19622;DHT22;9958;33.196;-97.114;2022-12-29T14:47:19;16.60;99.90
19622;DHT22;9958;33.196;-97.114;2022-12-29T14:49:48;16.60;99.90
19622;DHT22;9958;33.196;-97.114;2022-12-29T14:52:19;16.70;99.90
19622;DHT22;9958;33.196;-97.114;2022-12-29T14:54:51;16.70;99.90
19622;DHT22;9958;33.196;-97.114;2022-12-29T14:57:24;16.80;99.90
19622;DHT22;9958;33.196;-97.114;2022-12-29T14:59:58;16.80;99.90
19622;DHT22;9958;33.196;-97.114;2022-12-29T15:02:34;16.80;99.90
19622;DHT22;9958;33.196;-97.114;2022-12-29T15:05:06;16.90;99.90
19622;DHT22;9958;33.196;-97.114;2022-12-29T15:07:43;16.90;99.90
19622;DHT22;9958;33.196;-97.114;2022-12-29T15:10:14;17.00;99.90
19622;DHT22;9958;33.196;-97.114;2022-12-29T15:12:49;17.00;99.90
19622;DHT22;9958;33.196;-97.114;2022-12-29T15:15:23;17.00;99.90
19622;DHT22;9958;33.196;-97.114;2022-12-29T15:17:52;17.10;99.90
19622;DHT22;9958;33.196;-97.114;2022-12-29T15:20:24;17.10;99.90
19622;DHT22;9958;33.196;-97.114;2022-12-29T15:22:56;17.10;99.90
19622;DHT22;9958;33.196;-97.114;2022-12-29T15:25:25;17.20;99.90
19622;DHT22;9958;33.196;-97.114;2022-12-29T15:27:57;17.30;99.90
19622;DHT22;9958;33.196;-97.114;2022-12-29T15:30:29;17.30;99.90
19622;DHT22;9958;33.196;-97.114;2022-12-29T15:32:57;17.40;99.90
19622;DHT22;9958;33.196;-97.114;2022-12-29T15:35:31;17.50;99.90
19622;DHT22;9958;33.196;-97.114;2022-12-29T15:38:00;17.50;99.90
19622;DHT22;9958;33.196;-97.114;2022-12-29T15:40:31;17.60;99.90
19622;DHT22;9958;33.196;-97.114;2022-12-29T15:43:15;17.70;99.90
19622;DHT22;9958;33.196;-97.114;2022-12-29T15:45:49;17.80;99.90
19622;DHT22;9958;33.196;-97.114;2022-12-29T15:48:21;17.80;99.90
19622;DHT22;9958;33.196;-97.114;2022-12-29T15:50:51;17.90;99.90
19622;DHT22;9958;33.196;-97.114;2022-12-29T15:53:22;17.90;99.90